Time;durP1;ratioP1;P1;durP2;ratioP2;P2;SDS_P1;SDS_P2;PMS_P1;PMS_P2;Temp;Humidity;BMP_temperature;BMP_pressure;BME280_temperature;BME280_humidity;BME280_pressure;Samples;Min_cycle;Max_cycle;Signal;HPM_P1;HPM_P2
2022/06/20 00:02:24;;;;;;;4.60;3.47;;;29.90;46.30;;;30.29;33.61;97834.06;4976598;28;123746;-83
2022/06/20 00:04:53;;;;;;;4.60;3.10;;;29.80;46.40;;;30.24;33.96;97837.53;4973277;28;114186;-83
2022/06/20 00:07:22;;;;;;;5.10;4.03;;;29.80;46.60;;;30.21;33.88;97835.59;4985046;28;114012;-83
2022/06/20 00:09:48;;;;;;;4.13;3.40;;;29.70;46.70;;;30.16;34.02;97842.69;4967897;28;123834;-84
2022/06/20 00:12:23;;;;;;;3.40;3.10;;;29.70;46.80;;;30.11;34.34;97839.66;4985042;28;123835;-81
2022/06/20 00:14:59;;;;;;;4.53;3.37;;;29.60;46.90;;;30.07;34.02;97833.31;4982584;28;114699;-83
2022/06/20 00:17:27;;;;;;;4.30;3.43;;;29.60;47.00;;;30.02;34.07;97831.88;4957045;28;113634;-83
2022/06/20 00:19:54;;;;;;;3.50;2.80;;;29.60;47.10;;;29.99;34.39;97832.81;4961728;28;123778;-83
2022/06/20 00:22:20;;;;;;;4.07;3.37;;;29.50;47.30;;;29.98;34.88;97836.13;4973039;28;123771;-83
2022/06/20 00:24:51;;;;;;;5.80;3.60;;;29.50;47.40;;;29.95;34.62;97827.22;4969422;28;114537;-83
2022/06/20 00:27:17;;;;;;;5.13;3.27;;;29.50;47.40;;;29.94;34.73;97813.47;4977946;28;114205;-83
2022/06/20 00:29:44;;;;;;;3.83;3.07;;;29.40;47.60;;;29.91;34.66;97818.06;4972241;28;124140;-83
2022/06/20 00:32:11;;;;;;;3.93;3.40;;;29.40;47.70;;;29.90;34.66;97819.31;4970974;28;123797;-83
2022/06/20 00:34:39;;;;;;;4.50;3.30;;;29.40;47.80;;;29.88;34.79;97818.19;4981618;28;115250;-83
2022/06/20 00:37:08;;;;;;;4.00;3.20;;;29.40;47.90;;;29.88;34.94;97827.53;4967075;28;114618;-83
2022/06/20 00:39:35;;;;;;;4.70;3.20;;;29.30;47.90;;;29.87;34.90;97819.44;4970187;28;124118;-83
2022/06/20 00:42:02;;;;;;;6.30;3.43;;;29.30;48.00;;;29.85;34.93;97827.66;4977486;28;123040;-83
2022/06/20 00:44:38;;;;;;;4.50;3.43;;;29.30;48.10;;;29.83;34.97;97827.34;4998489;28;113604;-83
2022/06/20 00:47:17;;;;;;;5.10;3.57;;;29.30;48.20;;;29.79;35.15;97847.41;4982288;28;114048;-83
2022/06/20 00:50:25;;;;;;;7.70;3.03;;;29.30;48.20;;;29.73;34.96;97855.75;4952847;28;124806;-83
2022/06/20 00:53:09;;;;;;;4.47;3.37;;;29.30;48.30;;;29.69;34.93;97871.41;4978540;28;123869;-83
2022/06/20 00:55:49;;;;;;;4.97;3.57;;;29.20;48.50;;;29.61;35.49;97859.47;4970571;28;113390;-83
2022/06/20 00:58:44;;;;;;;5.90;3.70;;;29.10;48.60;;;29.56;35.75;97865.75;4980263;28;113907;-83
2022/06/20 01:01:14;;;;;;;4.13;3.57;;;29.10;48.80;;;29.54;35.57;97873.16;4978949;28;123639;-83
2022/06/20 01:03:51;;;;;;;5.60;3.53;;;29.00;48.90;;;29.52;35.81;97871.56;4976031;28;123787;-83
2022/06/20 01:06:33;;;;;;;4.67;3.27;;;29.00;49.10;;;29.48;35.82;97873.75;4957703;28;113938;-83
2022/06/20 01:09:09;;;;;;;3.23;2.90;;;29.00;49.20;;;29.48;36.03;97868.06;4971113;28;114043;-83
2022/06/20 01:11:58;;;;;;;8.90;4.00;;;28.90;49.50;;;29.44;36.44;97843.84;4968335;28;124128;-83
2022/06/20 01:14:33;;;;;;;6.07;3.40;;;28.90;50.00;;;29.42;36.92;97841.47;4972649;28;124394;-83
2022/06/20 01:17:06;;;;;;;6.10;3.80;;;28.90;50.60;;;29.38;37.87;97843.63;4971452;28;114377;-83
2022/06/20 01:19:57;;;;;;;7.13;3.27;;;28.90;51.30;;;29.32;37.87;97842.66;4970460;28;114382;-83
2022/06/20 01:22:43;;;;;;;6.63;4.10;;;28.80;51.90;;;29.28;38.22;97847.66;4971371;28;123864;-83
2022/06/20 01:25:37;;;;;;;5.57;3.43;;;28.80;52.10;;;29.21;38.55;97842.25;4974063;28;124086;-83
2022/06/20 01:28:08;;;;;;;9.73;3.90;;;28.70;52.60;;;29.10;39.16;97833.28;4981110;28;115302;-83
2022/06/20 01:30:40;;;;;;;7.47;4.10;;;28.70;53.10;;;29.00;39.41;97836.03;4979171;28;114596;-83
2022/06/20 01:33:08;;;;;;;6.63;4.53;;;28.60;53.70;;;28.90;40.28;97840.06;4971646;28;124467;-83
2022/06/20 01:38:21;;;;;;;7.07;4.87;;;28.40;54.50;;;28.73;40.79;97830.09;4986379;28;114813;-83
2022/06/20 01:43:34;;;;;;;5.00;4.03;;;28.20;55.30;;;28.63;41.25;97832.84;4990360;28;124604;-83
2022/06/20 01:46:09;;;;;;;5.47;4.50;;;28.20;55.60;;;28.60;41.57;97839.44;4985848;28;123771;-83
2022/06/20 01:48:41;;;;;;;5.53;5.00;;;28.20;56.20;;;28.57;41.78;97853.78;4981591;28;116805;-83
2022/06/20 01:51:25;;;;;;;5.77;4.50;;;28.10;56.60;;;28.51;42.08;97841.41;4980686;28;113264;-83
2022/06/20 01:53:53;;;;;;;5.80;4.20;;;28.10;57.10;;;28.38;42.36;97838.56;4987655;28;124100;-83
2022/06/20 01:56:23;;;;;;;7.90;5.00;;;28.00;57.40;;;28.29;42.81;97849.78;4984656;28;124065;-83
2022/06/20 01:58:58;;;;;;;5.90;4.10;;;27.90;57.70;;;28.20;43.19;97848.44;4992932;28;114788;-83
2022/06/20 02:01:26;;;;;;;5.47;4.50;;;27.80;58.10;;;28.18;43.69;97855.81;4989963;28;113992;-82
2022/06/20 02:03:53;;;;;;;4.80;4.30;;;27.70;58.50;;;28.16;43.50;97850.59;4978789;28;123838;-82
2022/06/20 02:06:20;;;;;;;6.27;4.43;;;27.70;58.80;;;28.14;43.79;97853.09;4991770;28;122836;-82
2022/06/20 02:08:53;;;;;;;7.23;4.50;;;27.60;59.10;;;28.12;43.52;97857.66;4980567;28;113254;-83
2022/06/20 02:11:37;;;;;;;5.10;4.60;;;27.60;60.00;;;28.08;43.79;97849.25;4977672;28;114046;-82
2022/06/20 02:14:12;;;;;;;4.90;4.33;;;27.60;59.50;;;28.04;43.74;97844.91;4982630;28;123380;-82
2022/06/20 02:16:43;;;;;;;5.13;4.07;;;27.60;59.80;;;28.03;43.88;97841.28;4967485;28;122881;-82
2022/06/20 02:19:15;;;;;;;5.00;4.00;;;27.50;60.00;;;28.03;43.98;97829.94;4980939;28;115262;-82
2022/06/20 02:21:45;;;;;;;5.87;4.23;;;27.50;60.20;;;28.02;44.12;97838.91;4981481;28;114293;-82
2022/06/20 02:24:18;;;;;;;6.90;4.97;;;27.50;60.50;;;28.01;44.70;97829.59;4979830;28;124166;-82
2022/06/20 02:26:50;;;;;;;6.37;4.23;;;27.40;60.70;;;27.99;44.73;97829.22;4968665;28;124280;-82
2022/06/20 02:29:26;;;;;;;4.93;4.43;;;27.40;61.10;;;27.98;44.65;97830.50;4981184;28;113919;-82
2022/06/20 02:32:08;;;;;;;8.40;4.73;;;27.40;61.30;;;27.97;45.00;97828.91;4972881;28;113964;-82
2022/06/20 02:34:35;;;;;;;5.53;4.87;;;27.40;61.40;;;27.94;44.84;97826.97;4975702;28;125710;-83
2022/06/20 02:37:09;;;;;;;6.63;4.70;;;27.40;61.60;;;27.92;45.00;97835.16;4970985;28;123887;-82
2022/06/20 02:39:39;;;;;;;5.67;4.57;;;27.40;61.80;;;27.89;44.83;97822.66;4983019;28;114298;-82
2022/06/20 02:42:14;;;;;;;5.53;4.50;;;27.40;61.90;;;27.88;44.94;97840.13;4976106;28;114451;-83
2022/06/20 02:44:45;;;;;;;8.73;5.53;;;27.40;62.20;;;27.86;45.57;97848.31;4971944;28;123336;-83
2022/06/20 02:47:13;;;;;;;10.17;5.73;;;27.30;62.70;;;27.80;45.48;97861.44;4977329;28;123241;-83
2022/06/20 02:49:40;;;;;;;7.93;4.93;;;27.30;62.90;;;27.71;45.35;97870.63;4980024;28;114255;-83
2022/06/20 02:52:12;;;;;;;6.33;5.10;;;27.20;62.80;;;27.63;45.92;97858.69;4984508;28;113955;-82
2022/06/20 02:54:40;;;;;;;5.47;4.47;;;27.20;63.00;;;27.58;46.00;97856.41;4980373;28;123962;-82
2022/06/20 02:57:34;;;;;;;5.27;4.53;;;27.10;63.20;;;27.54;45.94;97847.22;4977445;28;124502;-83
2022/06/20 03:00:05;;;;;;;5.50;4.30;;;27.10;63.50;;;27.52;46.62;97856.16;4974667;28;114217;-83
2022/06/20 03:02:37;;;;;;;4.50;4.10;;;27.00;64.10;;;27.51;46.73;97848.91;4984488;28;114119;-83
2022/06/20 03:05:05;;;;;;;6.20;4.57;;;27.00;64.50;;;27.51;46.84;97860.25;4975363;28;122971;-83
2022/06/20 03:07:39;;;;;;;4.87;4.37;;;27.00;64.80;;;27.51;46.83;97860.25;4982218;28;123822;-83
2022/06/20 03:10:33;;;;;;;6.03;4.90;;;27.00;65.10;;;27.49;47.04;97859.13;4987945;28;115297;-83
2022/06/20 03:13:01;;;;;;;5.83;4.80;;;26.90;65.40;;;27.46;47.36;97866.50;4984384;28;114881;-83
2022/06/20 03:15:30;;;;;;;5.07;4.53;;;26.90;65.60;;;27.45;47.18;97856.38;4982399;28;124553;-83
2022/06/20 03:17:58;;;;;;;4.90;4.17;;;26.90;65.90;;;27.46;47.01;97874.22;4982897;28;124105;-83
2022/06/20 03:20:26;;;;;;;5.83;4.27;;;26.90;66.30;;;27.44;47.18;97871.81;4980365;28;114296;-83
2022/06/20 03:23:18;;;;;;;4.73;4.23;;;26.90;66.60;;;27.42;47.39;97877.13;4983275;28;114454;-83
2022/06/20 03:25:45;;;;;;;6.20;4.30;;;26.90;66.90;;;27.42;47.28;97877.13;4973558;28;124583;-82
2022/06/20 03:28:20;;;;;;;5.10;4.13;;;26.90;67.10;;;27.44;47.26;97876.69;4975263;28;122602;-83
2022/06/20 03:30:47;;;;;;;8.53;4.77;;;26.90;67.30;;;27.44;47.68;97893.72;4969761;28;114266;-83
2022/06/20 03:33:16;;;;;;;6.33;4.73;;;26.90;67.60;;;27.45;47.73;97895.31;4979423;28;113724;-83
2022/06/20 03:36:21;;;;;;;5.77;4.73;;;26.90;68.00;;;27.44;47.91;97945.56;4970054;28;124442;-83
2022/06/20 03:38:49;;;;;;;7.07;5.70;;;26.90;68.30;;;27.42;47.61;97947.28;4968766;28;124043;-84
2022/06/20 03:41:22;;;;;;;10.77;4.73;;;26.80;68.30;;;27.34;46.94;97965.72;4974445;28;114114;-83
2022/06/20 03:44:30;;;;;;;6.37;5.63;;;26.80;67.80;;;27.18;47.03;97967.34;4979499;28;114438;-83
2022/06/20 03:47:22;;;;;;;8.90;6.13;;;26.70;67.60;;;26.94;47.81;97965.91;4971991;28;124111;-83
2022/06/20 03:50:03;;;;;;;9.23;6.17;;;26.50;67.80;;;26.71;48.16;97964.84;4976856;28;124084;-84
2022/06/20 03:52:38;;;;;;;10.67;6.33;;;28.00;69.50;;;26.49;48.81;97969.38;4982621;28;113836;-84
2022/06/20 03:55:18;;;;;;;14.77;6.23;;;26.20;68.70;;;26.22;49.04;97993.03;4978854;28;114710;-84
2022/06/20 03:57:52;;;;;;;8.13;5.53;;;24.20;67.70;;;25.99;49.22;97980.59;4979066;28;124543;-84
2022/06/20 04:00:28;;;;;;;12.53;5.50;;;25.80;69.40;;;25.77;49.41;97991.53;4982453;28;123958;-84
2022/06/20 04:03:09;;;;;;;12.60;6.30;;;25.50;70.20;;;25.54;49.70;98005.72;4978134;28;115879;-84
2022/06/20 04:05:52;;;;;;;8.80;5.40;;;25.30;70.60;;;25.31;50.00;98032.00;4965366;28;113953;-84
2022/06/20 04:10:57;;;;;;;10.27;5.70;;;25.10;71.00;;;25.14;50.58;98042.31;4984365;28;124183;-84
2022/06/20 04:11:18;;;;;;;10.90;6.23;;;24.90;71.40;;;24.96;51.12;98031.31;4980748;28;123767;-84
2022/06/20 04:14:09;;;;;;;7.13;5.37;;;24.70;72.30;;;24.79;51.26;98046.53;4975912;28;114356;-84
2022/06/20 04:16:50;;;;;;;7.63;5.30;;;24.60;72.90;;;24.68;51.40;98035.38;4982799;28;114157;-84
2022/06/20 04:19:30;;;;;;;5.77;4.47;;;24.40;73.30;;;24.68;51.38;98039.00;4978238;28;124329;-84
2022/06/20 04:22:15;;;;;;;6.90;4.93;;;24.40;73.90;;;24.68;51.52;98029.72;4979192;28;124407;-84
2022/06/20 04:24:54;;;;;;;7.60;5.07;;;24.30;74.70;;;24.67;51.53;98045.09;4972335;28;114255;-84
2022/06/20 04:27:45;;;;;;;6.83;4.30;;;24.30;74.90;;;24.63;51.39;98042.28;4971596;28;114022;-84
2022/06/20 04:30:42;;;;;;;5.57;4.20;;;24.20;75.10;;;24.62;51.72;98046.34;4976135;28;123087;-84
2022/06/20 04:33:42;;;;;;;8.00;5.07;;;24.20;75.50;;;24.66;51.95;98051.94;4977098;28;123754;-84
2022/06/20 04:36:53;;;;;;;6.40;4.30;;;24.20;76.10;;;24.68;51.72;98087.03;4975337;28;115012;-84
2022/06/20 04:39:39;;;;;;;6.20;3.53;;;24.20;76.50;;;24.69;51.73;98101.97;4975507;28;113218;-84
2022/06/20 04:42:21;;;;;;;5.03;3.80;;;24.20;76.60;;;24.71;51.34;98105.16;4976587;28;124083;-84
2022/06/20 04:45:03;;;;;;;6.40;4.30;;;24.20;76.80;;;24.74;51.30;98100.69;4966743;28;122617;-84
2022/06/20 04:47:38;;;;;;;4.10;3.40;;;24.20;76.90;;;24.74;51.51;98072.41;4972014;28;114619;-84
2022/06/20 04:50:29;;;;;;;5.60;3.80;;;24.20;77.00;;;24.74;51.48;98061.91;4973965;28;114062;-84
2022/06/20 04:53:08;;;;;;;4.20;3.63;;;24.20;77.20;;;24.78;51.72;98057.03;4991531;28;124287;-84
2022/06/20 04:55:39;;;;;;;6.07;3.87;;;24.20;77.70;;;24.82;51.65;98032.31;4982648;28;124743;-84
2022/06/20 04:58:12;;;;;;;4.00;3.30;;;24.20;78.00;;;24.88;51.49;98024.19;4981275;28;114201;-84
2022/06/20 05:00:44;;;;;;;6.70;3.60;;;24.20;78.10;;;24.91;51.44;98029.78;4978802;28;115144;-84
2022/06/20 05:03:19;;;;;;;4.27;3.60;;;24.30;78.40;;;24.98;51.49;98033.72;4982838;28;124614;-83
2022/06/20 05:05:51;;;;;;;3.90;3.40;;;24.40;78.70;;;25.00;51.52;98054.66;4967841;28;123689;-82
2022/06/20 05:08:29;;;;;;;3.93;3.13;;;24.40;78.80;;;25.00;50.68;98065.19;4971917;28;114257;-83
2022/06/20 05:11:14;;;;;;;4.90;3.77;;;24.40;78.10;;;24.96;50.30;98059.59;4983021;28;113728;-86
2022/06/20 05:14:28;;;;;;;4.77;3.30;;;24.40;77.30;;;24.92;50.28;98070.94;4979182;28;124524;-83
2022/06/20 05:16:55;;;;;;;6.93;3.57;;;24.40;77.10;;;24.95;50.31;98052.31;4961195;28;124210;-83
2022/06/20 05:19:36;;;;;;;4.87;2.93;;;24.40;77.40;;;24.94;50.55;98066.91;4974520;28;114498;-83
2022/06/20 05:22:11;;;;;;;5.30;3.63;;;24.40;77.50;;;24.89;50.49;98076.66;4972484;28;114033;-83
2022/06/20 05:24:43;;;;;;;5.70;3.93;;;24.40;77.50;;;24.82;50.92;98065.44;4971424;28;124091;-84
2022/06/20 05:27:50;;;;;;;5.00;3.70;;;24.30;77.70;;;24.76;50.75;98044.56;4980444;28;123818;-87
2022/06/20 05:30:26;;;;;;;5.07;3.60;;;24.30;77.80;;;24.74;50.44;98041.34;4976613;28;114844;-85
2022/06/20 05:33:10;;;;;;;3.90;3.27;;;24.20;77.70;;;24.71;50.35;98057.13;4970550;28;113783;-83
2022/06/20 05:35:53;;;;;;;8.33;3.73;;;24.20;77.40;;;24.69;50.03;98062.41;4984182;28;124652;-84
2022/06/20 05:38:44;;;;;;;3.83;3.43;;;24.20;77.20;;;24.71;49.75;98078.94;4972856;28;123528;-83
2022/06/20 05:41:15;;;;;;;4.80;3.50;;;24.20;77.00;;;24.73;50.23;98096.25;4984813;28;113509;-83
2022/06/20 05:43:42;;;;;;;3.80;3.17;;;24.20;77.10;;;24.76;50.09;98099.03;4979279;28;113731;-83
2022/06/20 05:46:29;;;;;;;4.20;3.80;;;24.20;77.20;;;24.77;49.96;98091.34;4984587;28;124033;-83
2022/06/20 05:49:04;;;;;;;6.20;3.40;;;24.20;77.40;;;24.80;50.09;98102.63;4968463;28;122983;-83
2022/06/20 05:51:36;;;;;;;5.83;3.33;;;24.20;77.70;;;24.82;49.93;98093.69;4985302;28;116279;-82
2022/06/20 05:54:30;;;;;;;4.17;3.00;;;24.20;78.60;;;24.82;50.28;98090.88;4983201;28;115259;-83
2022/06/20 05:57:10;;;;;;;4.50;3.17;;;24.20;78.30;;;24.83;50.65;98093.28;4985606;28;124674;-83
2022/06/20 05:59:45;;;;;;;3.87;2.90;;;24.20;78.60;;;24.84;51.03;98111.03;4985149;28;123848;-82
2022/06/20 06:02:21;;;;;;;4.17;3.40;;;24.20;78.90;;;24.82;50.93;98117.09;4982003;28;114761;-82
2022/06/20 06:05:22;;;;;;;3.10;2.90;;;24.30;79.30;;;24.84;51.09;98105.38;4951664;28;113065;-83
2022/06/20 06:07:55;;;;;;;6.53;3.00;;;24.30;79.50;;;24.88;50.73;98104.13;4955547;28;123871;-83
2022/06/20 06:10:46;;;;;;;6.30;3.63;;;24.30;79.50;;;24.92;50.63;98092.75;4947208;28;123608;-82
2022/06/20 06:13:37;;;;;;;5.53;3.40;;;24.30;79.50;;;24.97;50.70;98095.09;4936307;28;114799;-82
2022/06/20 06:19:27;;;;;;;4.80;3.70;;;24.40;79.80;;;25.06;50.89;98094.56;4967164;28;125269;-82
2022/06/20 06:21:59;;;;;;;5.13;3.70;;;24.40;80.00;;;25.08;50.79;98107.03;4966815;28;124570;-82
2022/06/20 06:24:27;;;;;;;7.00;4.30;;;24.40;80.00;;;25.11;50.75;98102.56;4937079;28;114448;-83
2022/06/20 06:26:58;;;;;;;7.47;3.50;;;24.40;80.10;;;25.14;50.75;98099.66;4966127;28;114387;-82
2022/06/20 06:29:56;;;;;;;6.17;3.70;;;24.50;80.30;;;25.16;50.64;98090.78;4950431;28;124451;-82
2022/06/20 06:32:51;;;;;;;4.50;3.50;;;24.50;80.40;;;25.17;50.75;98088.75;4950653;28;124134;-82
2022/06/20 06:35:29;;;;;;;4.60;3.60;;;24.50;80.60;;;25.19;50.91;98087.09;4952316;28;114282;-82
2022/06/20 06:38:13;;;;;;;8.97;3.17;;;24.50;80.80;;;25.22;50.98;98082.63;4972457;28;114117;-82
2022/06/20 06:40:52;;;;;;;6.50;3.60;;;24.60;81.00;;;25.25;51.35;98088.22;4982177;28;124321;-83
2022/06/20 06:43:32;;;;;;;5.33;4.23;;;24.60;81.20;;;25.30;51.36;98099.03;4974474;28;123077;-82
2022/06/20 06:46:00;;;;;;;6.43;3.70;;;24.60;81.30;;;25.37;50.87;98106.63;4974934;28;115575;-85
2022/06/20 06:48:39;;;;;;;4.70;3.63;;;24.70;81.50;;;25.41;51.09;98098.88;4982290;28;114542;-82
2022/06/20 06:51:42;;;;;;;5.90;4.33;;;24.70;81.30;;;25.41;50.82;98104.53;4987003;28;123525;-82
2022/06/20 06:55:17;;;;;;;6.83;3.70;;;24.80;81.40;;;25.42;50.75;98102.53;4972283;28;123111;-82
2022/06/20 06:58:09;;;;;;;5.03;3.60;;;24.80;81.30;;;25.46;50.75;98109.69;4969179;28;112673;-82
2022/06/20 07:00:48;;;;;;;3.83;3.20;;;24.80;81.20;;;25.48;50.81;98115.72;4989319;28;114145;-82
2022/06/20 07:04:00;;;;;;;4.37;3.50;;;24.80;81.10;;;25.49;50.49;98125.81;4968609;28;124317;-82
2022/06/20 07:06:41;;;;;;;4.90;3.30;;;24.90;81.10;;;25.57;50.26;98130.09;4994722;28;123979;-82
2022/06/20 07:09:28;;;;;;;6.50;3.63;;;25.00;81.20;;;25.64;50.36;98132.03;4969850;28;114779;-82
2022/06/20 07:12:11;;;;;;;5.17;3.77;;;25.00;80.90;;;25.74;50.02;98128.22;4987545;28;114038;-82
2022/06/20 07:14:56;;;;;;;5.37;3.50;;;25.00;80.60;;;25.81;49.27;98121.63;4985854;28;123229;-82
2022/06/20 07:17:33;;;;;;;4.97;3.47;;;25.10;80.10;;;25.88;48.90;98130.03;4969970;28;123830;-83
2022/06/20 07:20:00;;;;;;;4.03;3.47;;;25.20;79.60;;;25.98;48.40;98137.53;4951795;28;113012;-83
2022/06/20 07:22:27;;;;;;;5.40;4.00;;;25.20;79.20;;;26.09;48.77;98122.38;4986694;28;113806;-82
2022/06/20 07:24:55;;;;;;;5.10;3.37;;;25.30;79.00;;;26.17;48.09;98126.66;4987633;28;124025;-83
2022/06/20 07:27:34;;;;;;;5.40;3.93;;;25.40;78.70;;;26.25;48.55;98135.81;4984211;28;123981;-83
2022/06/20 07:30:12;;;;;;;6.33;3.80;;;25.50;78.70;;;26.30;48.29;98119.09;4969007;28;113940;-83
2022/06/20 07:32:54;;;;;;;5.47;3.97;;;25.60;78.70;;;26.33;48.52;98121.09;4970167;28;114322;-83
2022/06/20 07:35:31;;;;;;;5.43;4.37;;;25.60;78.50;;;26.40;47.82;98120.13;4969482;28;124009;-82
2022/06/20 07:38:22;;;;;;;6.40;3.73;;;25.70;78.30;;;26.51;47.61;98115.06;4977134;28;123936;-83
2022/06/20 07:41:08;;;;;;;5.47;3.70;;;25.70;77.90;;;26.63;47.58;98110.78;4979953;28;114795;-84
2022/06/20 07:44:19;;;;;;;6.77;4.40;;;25.90;77.80;;;26.70;47.35;98116.28;4982664;28;114951;-84
2022/06/20 07:47:08;;;;;;;5.23;3.93;;;26.00;77.30;;;26.77;47.02;98116.13;4976483;28;123991;-84
2022/06/20 07:49:50;;;;;;;5.43;3.77;;;26.00;76.90;;;26.84;46.79;98103.81;4982005;28;123812;-84
2022/06/20 07:52:33;;;;;;;3.83;3.53;;;26.10;76.70;;;26.96;46.50;98110.88;4986749;28;114399;-84
2022/06/20 07:55:07;;;;;;;9.67;4.13;;;26.20;76.60;;;27.07;46.86;98114.25;4983583;28;113937;-84
2022/06/20 07:57:40;;;;;;;4.50;4.10;;;26.30;76.60;;;27.17;46.63;98118.91;4983631;28;124254;-84
2022/06/20 08:00:16;;;;;;;6.93;4.03;;;26.40;76.40;;;27.26;46.31;98123.97;4977224;28;124199;-84
2022/06/20 08:03:03;;;;;;;7.77;4.17;;;26.50;76.10;;;27.33;46.16;98128.69;4984363;28;114309;-84
2022/06/20 08:06:09;;;;;;;7.53;3.90;;;26.50;75.70;;;27.37;45.89;98130.16;4975551;28;114018;-84
2022/06/20 08:08:44;;;;;;;4.97;3.57;;;26.60;76.20;;;27.44;46.33;98135.69;4978865;28;124085;-83
2022/06/20 08:11:43;;;;;;;6.10;3.90;;;26.70;75.50;;;27.51;45.83;98134.69;4986331;28;123013;-83
2022/06/20 08:14:36;;;;;;;8.37;4.80;;;26.80;75.20;;;27.57;45.63;98138.63;4979111;28;114657;-83
2022/06/20 08:17:08;;;;;;;8.83;5.53;;;26.90;74.30;;;27.54;44.94;98131.78;4986593;28;116226;-82
2022/06/20 08:19:37;;;;;;;8.20;4.83;;;26.90;73.60;;;27.60;44.96;98143.41;4970635;28;123463;-82
2022/06/20 08:22:29;;;;;;;5.60;4.63;;;26.90;73.10;;;27.64;44.20;98137.63;4982904;28;124049;-82
2022/06/20 08:25:10;;;;;;;10.40;5.90;;;27.00;72.40;;;27.66;43.72;98141.63;4967385;28;114209;-83
2022/06/20 08:27:55;;;;;;;10.53;5.70;;;27.00;71.40;;;27.68;43.73;98147.66;4979985;28;114834;-83
2022/06/20 08:30:56;;;;;;;5.97;4.80;;;27.00;70.80;;;27.67;43.29;98154.59;4974708;28;124894;-85
2022/06/20 08:33:30;;;;;;;8.40;4.63;;;27.10;70.30;;;27.66;43.31;98144.47;4970258;28;123936;-84
2022/06/20 08:36:10;;;;;;;6.47;4.50;;;27.10;69.60;;;27.65;42.90;98145.72;4971291;28;114235;-83
2022/06/20 08:38:45;;;;;;;9.13;4.60;;;27.10;69.40;;;27.67;42.86;98148.09;4970717;28;114769;-84
2022/06/20 08:41:37;;;;;;;6.97;4.87;;;27.10;69.20;;;27.70;42.92;98155.72;4968800;28;123183;-84
2022/06/20 08:44:35;;;;;;;10.33;5.30;;;27.20;69.00;;;27.74;42.83;98160.06;4963051;28;122834;-83
2022/06/20 08:47:48;;;;;;;11.03;4.60;;;27.20;68.70;;;27.75;42.55;98153.16;4981224;28;114842;-85
2022/06/20 08:51:02;;;;;;;13.47;5.47;;;27.20;68.40;;;27.74;42.51;98151.56;4977766;28;114087;-86
2022/06/20 08:53:54;;;;;;;13.70;5.30;;;27.20;68.30;;;27.76;42.40;98146.22;4972441;28;122844;-85
2022/06/20 08:56:55;;;;;;;10.27;5.43;;;27.30;68.00;;;27.81;42.18;98152.63;4991221;28;123776;-85
2022/06/20 08:59:39;;;;;;;6.80;4.90;;;27.30;67.80;;;27.84;42.45;98146.09;4994427;28;112526;-85
2022/06/20 09:02:42;;;;;;;7.13;5.00;;;27.30;67.80;;;27.88;42.46;98143.94;4987788;28;114419;-84
2022/06/20 09:05:27;;;;;;;8.47;4.40;;;27.30;67.70;;;27.92;42.19;98153.19;5005423;28;124827;-86
2022/06/20 09:08:29;;;;;;;5.20;4.60;;;27.40;67.50;;;27.93;42.04;98154.75;4981872;28;123563;-83
2022/06/20 09:11:20;;;;;;;7.20;4.97;;;27.40;67.30;;;27.94;41.90;98151.50;4979079;28;114195;-89
2022/06/20 09:13:53;;;;;;;8.83;5.03;;;27.40;67.20;;;28.01;41.97;98156.16;4984415;28;113815;-86
2022/06/20 09:16:24;;;;;;;6.80;4.33;;;27.40;67.10;;;28.07;41.72;98154.38;4986706;28;123986;-85
2022/06/20 09:19:23;;;;;;;5.03;4.00;;;27.50;67.00;;;28.15;41.88;98150.09;4982976;28;122072;-85
2022/06/20 09:22:30;;;;;;;5.83;4.00;;;27.60;67.00;;;28.24;41.74;98151.50;4991400;28;114484;-88
2022/06/20 09:25:39;;;;;;;5.53;4.30;;;27.70;66.70;;;28.30;41.31;98150.50;4983397;28;114101;-88
2022/06/20 09:28:51;;;;;;;4.77;4.27;;;27.70;66.60;;;28.38;41.32;98162.47;4985955;28;123589;-88
2022/06/20 09:31:30;;;;;;;6.10;4.50;;;27.80;66.50;;;28.44;41.29;98149.34;4986643;28;123858;-88
2022/06/20 09:34:10;;;;;;;10.03;5.30;;;27.80;66.30;;;28.49;41.54;98156.53;4986877;28;115532;-88
2022/06/20 09:37:09;;;;;;;7.00;4.10;;;27.90;66.20;;;28.53;41.32;98155.19;4978884;28;114894;-88
2022/06/20 09:40:15;;;;;;;6.77;4.60;;;27.90;65.90;;;28.58;41.26;98154.59;4989136;28;123600;-88
2022/06/20 09:43:13;;;;;;;7.83;5.37;;;28.00;65.90;;;28.66;40.98;98149.53;4984295;28;124464;-88
2022/06/20 09:46:06;;;;;;;8.37;5.40;;;28.10;65.70;;;28.74;40.91;98150.91;4974955;28;114307;-88
2022/06/20 09:49:10;;;;;;;5.63;4.50;;;28.20;65.50;;;28.82;40.92;98138.06;4980528;28;112252;-88
2022/06/20 09:51:55;;;;;;;8.53;4.90;;;28.20;65.10;;;28.92;40.53;98150.38;4981647;28;124294;-87
2022/06/20 09:54:49;;;;;;;10.50;5.50;;;28.30;64.90;;;28.96;40.18;98142.56;4985906;28;124452;-87
2022/06/20 09:57:50;;;;;;;12.23;5.80;;;28.40;64.40;;;28.93;39.93;98140.59;4977515;28;114308;-88
2022/06/20 10:00:31;;;;;;;7.03;5.30;;;28.40;63.60;;;28.96;40.09;98145.41;4981765;28;113994;-88
2022/06/20 10:03:26;;;;;;;5.60;4.53;;;28.40;63.70;;;29.04;40.03;98145.97;4983690;28;124541;-88
2022/06/20 10:06:15;;;;;;;5.17;4.30;;;28.50;63.80;;;29.11;39.80;98142.91;4981701;28;124028;-87
2022/06/20 10:09:11;;;;;;;10.57;5.30;;;28.50;63.50;;;29.19;39.46;98163.41;4980524;28;115053;-88
2022/06/20 10:12:04;;;;;;;12.27;4.60;;;28.60;63.30;;;29.18;39.48;98139.06;4988796;28;114124;-88
2022/06/20 10:14:46;;;;;;;8.20;5.13;;;28.60;62.90;;;29.19;39.47;98132.13;4986331;28;123516;-87
2022/06/20 10:17:36;;;;;;;7.27;4.30;;;28.70;62.80;;;29.16;39.42;98136.66;4977634;28;123838;-88
2022/06/20 10:20:23;;;;;;;8.80;5.00;;;28.70;62.70;;;29.18;39.61;98134.16;4984280;28;114639;-88
2022/06/20 10:23:30;;;;;;;8.33;4.97;;;28.70;62.50;;;29.18;39.51;98136.22;4970558;28;113974;-88
2022/06/20 10:26:17;;;;;;;9.60;5.23;;;28.70;62.40;;;29.21;39.53;98138.16;4979979;28;124597;-88
2022/06/20 10:28:49;;;;;;;10.47;4.90;;;28.70;62.30;;;29.21;39.42;98130.41;4977164;28;124342;-87
2022/06/20 10:31:41;;;;;;;5.20;4.50;;;28.70;62.20;;;29.25;39.68;98138.81;4972890;28;115368;-88
2022/06/20 10:34:27;;;;;;;6.23;4.17;;;28.70;62.30;;;29.28;39.43;98144.41;4983904;28;115108;-88
2022/06/20 10:37:13;;;;;;;13.20;4.97;;;28.80;62.10;;;29.27;39.37;98147.72;4966598;28;123291;-88
2022/06/20 10:40:14;;;;;;;11.13;5.10;;;28.80;61.50;;;29.27;39.15;98147.72;4986521;28;123477;-88
2022/06/20 10:43:06;;;;;;;11.07;5.23;;;28.90;61.40;;;29.23;39.38;98161.25;4988897;28;114644;-88
2022/06/20 10:46:26;;;;;;;8.17;5.37;;;28.80;61.50;;;29.24;39.18;98157.16;4979398;28;114463;-88
2022/06/20 10:49:40;;;;;;;11.30;4.90;;;28.80;61.60;;;29.24;39.18;98148.63;4971923;28;124194;-88
2022/06/20 10:52:48;;;;;;;5.80;4.17;;;28.80;61.60;;;29.29;38.73;98153.75;4974931;28;124274;-88
2022/06/20 10:55:33;;;;;;;6.83;3.90;;;28.80;61.20;;;29.34;38.46;98153.19;4975535;28;114461;-88
2022/06/20 10:58:59;;;;;;;6.83;4.07;;;28.90;60.40;;;29.32;37.76;98150.00;4987417;28;113749;-89
2022/06/20 11:01:50;;;;;;;8.63;4.00;;;28.90;59.30;;;29.28;37.51;98149.28;4971123;28;125659;-88
2022/06/20 11:04:49;;;;;;;6.13;4.07;;;28.90;58.60;;;29.31;37.41;98153.28;4940137;28;122862;-89
2022/06/20 11:07:24;;;;;;;6.50;3.60;;;28.90;58.00;;;29.39;37.24;98172.53;4962779;28;116137;-88
2022/06/20 11:10:03;;;;;;;8.97;4.13;;;28.90;57.80;;;29.42;36.76;98165.13;4961352;28;114374;-89
2022/06/20 11:13:06;;;;;;;6.67;3.90;;;29.00;58.00;;;29.40;37.31;98176.97;4950518;28;124063;-89
2022/06/20 11:15:45;;;;;;;11.33;4.07;;;29.00;58.20;;;29.43;37.31;98178.91;4953304;28;123708;-87
2022/06/20 11:18:58;;;;;;;8.33;4.23;;;29.00;58.50;;;29.41;37.70;98170.00;4962977;28;114807;-87
2022/06/20 11:21:45;;;;;;;8.13;4.20;;;29.00;58.20;;;29.37;37.20;98186.41;4941168;28;113406;-87
2022/06/20 11:24:28;;;;;;;8.17;4.33;;;28.90;58.20;;;29.37;37.44;98189.28;4958270;28;123365;-88
2022/06/20 11:27:24;;;;;;;10.90;4.20;;;28.90;58.20;;;29.27;37.94;98199.72;4946948;28;122752;-87